AAL1276 KCLT-KLAX
Flight info
| Callsign | AAL1276 |
|---|---|
| Flight time | N/A |
| Altitude | 32000 |
| Route | BOBZY5 BNA LIT J14 IRW J6 DRK J231 HIPPI GABBL HLYWD1 |
| Aircraft | A321/M-SDE3FGHIRWY/LB1 |
Departure
| Time | N/A |
|---|---|
| Airport | Charlotte Douglas International Airport (KCLT) |
Arrival
| Time | 2026-05-06 02:01 |
|---|---|
| Airport | Los Angeles International Airport (KLAX) |
| Time | Latitude | Longitude | Altitude | Speed | Heading |
|---|---|---|---|---|---|
| 2026-05-06 01:33 | 34.24466 | -115.31216 | 31838 ft | 427 kts | 256° |
| 2026-05-06 01:34 | 34.23014 | -115.38115 | 31838 ft | 427 kts | 256° |
| 2026-05-06 01:34 | 34.21547 | -115.45027 | 31838 ft | 428 kts | 256° |
| 2026-05-06 01:35 | 34.20061 | -115.51931 | 31849 ft | 428 kts | 256° |
| 2026-05-06 01:35 | 34.18559 | -115.58886 | 31852 ft | 428 kts | 256° |
| 2026-05-06 01:36 | 34.17061 | -115.65850 | 31857 ft | 429 kts | 256° |
| 2026-05-06 01:36 | 34.16014 | -115.72924 | 31854 ft | 429 kts | 264° |
| 2026-05-06 01:37 | 34.15328 | -115.80078 | 31865 ft | 431 kts | 264° |
| 2026-05-06 01:37 | 34.14626 | -115.87291 | 31879 ft | 433 kts | 264° |
| 2026-05-06 01:38 | 34.13920 | -115.94534 | 31903 ft | 435 kts | 264° |
| 2026-05-06 01:38 | 34.13206 | -116.01796 | 31916 ft | 437 kts | 264° |
| 2026-05-06 01:39 | 34.12492 | -116.09101 | 31925 ft | 439 kts | 264° |
| 2026-05-06 01:39 | 34.11767 | -116.16420 | 31992 ft | 441 kts | 264° |
| 2026-05-06 01:40 | 34.11041 | -116.23727 | 31754 ft | 441 kts | 264° |
| 2026-05-06 01:40 | 34.10676 | -116.27405 | 31456 ft | 442 kts | 265° |
| 2026-05-06 01:40 | 34.10308 | -116.31092 | 31203 ft | 443 kts | 265° |
| 2026-05-06 01:41 | 34.09930 | -116.34781 | 30963 ft | 445 kts | 264° |
| 2026-05-06 01:41 | 34.09536 | -116.38492 | 30378 ft | 447 kts | 264° |
| 2026-05-06 01:41 | 34.09133 | -116.42210 | 29655 ft | 449 kts | 264° |
| 2026-05-06 01:41 | 34.08726 | -116.45936 | 28991 ft | 451 kts | 264° |
| 2026-05-06 01:42 | 34.08339 | -116.49479 | 28356 ft | 453 kts | 264° |
| 2026-05-06 01:42 | 34.07935 | -116.53192 | 27695 ft | 453 kts | 264° |
| 2026-05-06 01:42 | 34.07526 | -116.56927 | 27276 ft | 442 kts | 264° |
| 2026-05-06 01:42 | 34.07131 | -116.60551 | 26980 ft | 429 kts | 265° |
| 2026-05-06 01:43 | 34.06780 | -116.64081 | 26719 ft | 422 kts | 265° |
| 2026-05-06 01:43 | 34.06460 | -116.67589 | 26224 ft | 418 kts | 266° |
| 2026-05-06 01:43 | 34.06156 | -116.71050 | 25708 ft | 415 kts | 266° |
| 2026-05-06 01:43 | 34.05852 | -116.74498 | 25196 ft | 412 kts | 266° |
| 2026-05-06 01:44 | 34.05546 | -116.77924 | 24706 ft | 409 kts | 265° |
| 2026-05-06 01:44 | 34.05234 | -116.81314 | 24206 ft | 407 kts | 265° |
| 2026-05-06 01:44 | 34.04916 | -116.84698 | 23695 ft | 405 kts | 266° |
| 2026-05-06 01:44 | 34.04595 | -116.88055 | 23149 ft | 402 kts | 265° |
| 2026-05-06 01:45 | 34.04250 | -116.91375 | 22659 ft | 398 kts | 263° |
| 2026-05-06 01:45 | 34.03846 | -116.94661 | 22168 ft | 394 kts | 263° |
| 2026-05-06 01:45 | 34.03410 | -116.97917 | 21680 ft | 391 kts | 262° |
| 2026-05-06 01:45 | 34.02966 | -117.01134 | 21203 ft | 388 kts | 262° |
| 2026-05-06 01:46 | 34.02529 | -117.04333 | 20721 ft | 385 kts | 263° |
| 2026-05-06 01:46 | 34.02125 | -117.07501 | 20244 ft | 382 kts | 263° |
| 2026-05-06 01:46 | 34.01747 | -117.10659 | 19772 ft | 378 kts | 264° |
| 2026-05-06 01:46 | 34.01385 | -117.13779 | 19306 ft | 375 kts | 264° |
| 2026-05-06 01:47 | 34.01025 | -117.16878 | 18825 ft | 372 kts | 263° |
| 2026-05-06 01:47 | 34.00665 | -117.19951 | 18410 ft | 369 kts | 264° |
| 2026-05-06 01:47 | 34.00304 | -117.23005 | 17903 ft | 367 kts | 264° |
| 2026-05-06 01:47 | 33.99943 | -117.26034 | 17420 ft | 363 kts | 263° |
| 2026-05-06 01:48 | 33.99586 | -117.29005 | 16972 ft | 361 kts | 263° |
| 2026-05-06 01:48 | 33.99227 | -117.31993 | 16523 ft | 359 kts | 263° |
| 2026-05-06 01:48 | 33.98876 | -117.34959 | 16081 ft | 356 kts | 264° |
| 2026-05-06 01:48 | 33.98533 | -117.37893 | 15698 ft | 350 kts | 263° |
| 2026-05-06 01:49 | 33.98196 | -117.40768 | 15315 ft | 343 kts | 264° |
| 2026-05-06 01:49 | 33.97865 | -117.43577 | 14787 ft | 336 kts | 264° |
| 2026-05-06 01:49 | 33.97648 | -117.45419 | 14509 ft | 335 kts | 264° |
| 2026-05-06 01:49 | 33.97405 | -117.48190 | 14093 ft | 331 kts | 272° |
| 2026-05-06 01:50 | 33.97768 | -117.51831 | 13408 ft | 325 kts | 284° |
| 2026-05-06 01:50 | 33.98088 | -117.53592 | 13072 ft | 324 kts | 284° |
| 2026-05-06 01:50 | 33.98725 | -117.57140 | 12416 ft | 325 kts | 284° |
| 2026-05-06 01:50 | 33.99037 | -117.58896 | 12073 ft | 323 kts | 284° |
| 2026-05-06 01:51 | 33.99501 | -117.61513 | 11583 ft | 318 kts | 284° |
| 2026-05-06 01:51 | 33.99962 | -117.64120 | 11098 ft | 317 kts | 284° |
| 2026-05-06 01:51 | 34.00415 | -117.66712 | 10612 ft | 316 kts | 283° |
| 2026-05-06 01:51 | 34.00518 | -117.70191 | 9996 ft | 306 kts | 265° |
| 2026-05-06 01:52 | 34.00272 | -117.72670 | 9617 ft | 293 kts | 266° |
| 2026-05-06 01:52 | 34.00108 | -117.74324 | 9529 ft | 294 kts | 265° |
| 2026-05-06 01:52 | 33.99868 | -117.76772 | 9408 ft | 293 kts | 266° |
| 2026-05-06 01:52 | 33.99630 | -117.79175 | 9258 ft | 293 kts | 265° |
| 2026-05-06 01:53 | 33.99389 | -117.81600 | 8929 ft | 289 kts | 265° |
| 2026-05-06 01:53 | 33.99152 | -117.83993 | 8573 ft | 287 kts | 265° |
| 2026-05-06 01:53 | 33.98919 | -117.86363 | 8216 ft | 284 kts | 266° |
| 2026-05-06 01:53 | 33.98689 | -117.88720 | 7846 ft | 281 kts | 266° |
| 2026-05-06 01:54 | 33.98464 | -117.91052 | 7477 ft | 279 kts | 266° |
| 2026-05-06 01:54 | 33.98239 | -117.93353 | 7140 ft | 275 kts | 264° |
| 2026-05-06 01:54 | 33.98005 | -117.95632 | 6794 ft | 273 kts | 264° |
| 2026-05-06 01:54 | 33.97779 | -117.97887 | 6450 ft | 269 kts | 264° |
| 2026-05-06 01:55 | 33.97563 | -118.00088 | 6281 ft | 258 kts | 265° |
| 2026-05-06 01:55 | 33.97354 | -118.02208 | 5978 ft | 253 kts | 264° |
| 2026-05-06 01:55 | 33.97147 | -118.04306 | 5644 ft | 252 kts | 264° |
| 2026-05-06 01:55 | 33.96940 | -118.06394 | 5319 ft | 251 kts | 264° |
| 2026-05-06 01:56 | 33.96736 | -118.08447 | 4986 ft | 249 kts | 264° |
| 2026-05-06 01:56 | 33.96530 | -118.10514 | 4652 ft | 247 kts | 263° |
| 2026-05-06 01:56 | 33.96328 | -118.12538 | 4307 ft | 239 kts | 263° |
| 2026-05-06 01:56 | 33.96136 | -118.14460 | 3998 ft | 223 kts | 263° |
| 2026-05-06 01:57 | 33.95951 | -118.16313 | 3706 ft | 220 kts | 263° |
| 2026-05-06 01:57 | 33.95771 | -118.18114 | 3440 ft | 214 kts | 263° |
| 2026-05-06 01:57 | 33.95595 | -118.19869 | 3150 ft | 208 kts | 263° |
| 2026-05-06 01:57 | 33.95424 | -118.21575 | 2877 ft | 203 kts | 263° |
| 2026-05-06 01:58 | 33.95257 | -118.23231 | 2608 ft | 197 kts | 262° |
| 2026-05-06 01:58 | 33.95095 | -118.24843 | 2357 ft | 190 kts | 263° |
| 2026-05-06 01:58 | 33.94941 | -118.26376 | 2105 ft | 180 kts | 263° |
| 2026-05-06 01:58 | 33.94794 | -118.27836 | 1869 ft | 171 kts | 262° |
| 2026-05-06 01:59 | 33.94657 | -118.29191 | 1644 ft | 158 kts | 262° |
| 2026-05-06 01:59 | 33.94527 | -118.30479 | 1442 ft | 151 kts | 262° |
| 2026-05-06 01:59 | 33.94404 | -118.31692 | 1246 ft | 142 kts | 262° |
| 2026-05-06 01:59 | 33.94289 | -118.32825 | 1050 ft | 134 kts | 262° |
| 2026-05-06 02:00 | 33.94182 | -118.33921 | 882 ft | 129 kts | 263° |
| 2026-05-06 02:00 | 33.94089 | -118.34982 | 681 ft | 129 kts | 263° |
| 2026-05-06 02:00 | 33.93973 | -118.36046 | 502 ft | 129 kts | 262° |
| 2026-05-06 02:00 | 33.93859 | -118.37117 | 347 ft | 128 kts | 262° |
| 2026-05-06 02:01 | 33.93749 | -118.38174 | 160 ft | 127 kts | 263° |
| 2026-05-06 02:01 | 33.93647 | -118.39175 | 94 ft | 109 kts | 264° |
| 2026-05-06 02:01 | 33.93586 | -118.39745 | 94 ft | 41 kts | 263° |
| 2026-05-06 02:01 | 33.93555 | -118.40078 | 96 ft | 37 kts | 268° |
| 2026-05-06 02:02 | 33.93608 | -118.40310 | 97 ft | 22 kts | 292° |
| 2026-05-06 02:02 | 33.93619 | -118.40504 | 95 ft | 26 kts | 262° |
| 2026-05-06 02:02 | 33.93603 | -118.40658 | 94 ft | 19 kts | 264° |
| 2026-05-06 02:02 | 33.93595 | -118.40789 | 96 ft | 12 kts | 268° |
| 2026-05-06 02:03 | 33.93595 | -118.40810 | 94 ft | 3 kts | 274° |
| 2026-05-06 02:03 | 33.93599 | -118.40826 | 97 ft | 0 kts | 286° |
| 2026-05-06 02:03 | 33.93603 | -118.40841 | 95 ft | 4 kts | 290° |
| 2026-05-06 02:04 | 33.93634 | -118.40884 | 95 ft | 11 kts | 328° |
| 2026-05-06 02:04 | 33.93719 | -118.40905 | 96 ft | 10 kts | 353° |
| 2026-05-06 02:04 | 33.93806 | -118.40915 | 93 ft | 15 kts | 354° |
| 2026-05-06 02:04 | 33.93872 | -118.40866 | 93 ft | 13 kts | 76° |
| 2026-05-06 02:05 | 33.93885 | -118.40744 | 95 ft | 15 kts | 83° |
| 2026-05-06 02:05 | 33.93897 | -118.40626 | 96 ft | 14 kts | 83° |
| 2026-05-06 02:05 | 33.93926 | -118.40545 | 97 ft | 11 kts | 26° |
| 2026-05-06 02:05 | 33.93998 | -118.40546 | 93 ft | 12 kts | 354° |
| 2026-05-06 02:06 | 33.94042 | -118.40567 | 94 ft | 7 kts | 296° |
| 2026-05-06 02:06 | 33.94041 | -118.40599 | 95 ft | 3 kts | 264° |
| 2026-05-06 02:06 | 33.94040 | -118.40615 | 97 ft | 0 kts | 268° |